sensor_id;sensor_type;location;lat;lon;timestamp;P1;durP1;ratioP1;P2;durP2;ratioP2
13605;SDS011;6874;52.084;5.090;2022-12-07T00:02:14;46.67;;;45.17;;
13605;SDS011;6874;52.084;5.090;2022-12-07T00:04:40;54.27;;;52.47;;
13605;SDS011;6874;52.084;5.090;2022-12-07T00:07:05;52.10;;;50.40;;
13605;SDS011;6874;52.084;5.090;2022-12-07T00:09:31;49.77;;;48.17;;
13605;SDS011;6874;52.084;5.090;2022-12-07T00:11:56;57.50;;;55.60;;
13605;SDS011;6874;52.084;5.090;2022-12-07T00:14:22;58.57;;;56.67;;
13605;SDS011;6874;52.084;5.090;2022-12-07T00:16:50;54.47;;;52.67;;
13605;SDS011;6874;52.084;5.090;2022-12-07T00:19:16;57.13;;;55.23;;
13605;SDS011;6874;52.084;5.090;2022-12-07T00:21:42;64.13;;;62.03;;
13605;SDS011;6874;52.084;5.090;2022-12-07T00:24:09;66.23;;;64.03;;
13605;SDS011;6874;52.084;5.090;2022-12-07T00:26:36;75.30;;;72.80;;
13605;SDS011;6874;52.084;5.090;2022-12-07T00:29:04;67.07;;;64.87;;
13605;SDS011;6874;52.084;5.090;2022-12-07T00:31:41;78.77;;;76.17;;
13605;SDS011;6874;52.084;5.090;2022-12-07T00:34:07;84.23;;;81.50;;
13605;SDS011;6874;52.084;5.090;2022-12-07T00:36:37;82.23;;;79.53;;
13605;SDS011;6874;52.084;5.090;2022-12-07T00:39:03;73.57;;;71.17;;
13605;SDS011;6874;52.084;5.090;2022-12-07T00:41:29;75.27;;;72.77;;
13605;SDS011;6874;52.084;5.090;2022-12-07T00:43:55;72.03;;;69.63;;
13605;SDS011;6874;52.084;5.090;2022-12-07T00:46:21;77.07;;;74.57;;
13605;SDS011;6874;52.084;5.090;2022-12-07T00:48:48;72.63;;;70.23;;
13605;SDS011;6874;52.084;5.090;2022-12-07T00:51:16;74.20;;;71.77;;
13605;SDS011;6874;52.084;5.090;2022-12-07T00:53:43;70.17;;;67.87;;
13605;SDS011;6874;52.084;5.090;2022-12-07T00:56:10;62.10;;;60.10;;
13605;SDS011;6874;52.084;5.090;2022-12-07T00:58:38;68.90;;;66.60;;
13605;SDS011;6874;52.084;5.090;2022-12-07T01:01:04;58.50;;;56.60;;
13605;SDS011;6874;52.084;5.090;2022-12-07T01:03:31;56.00;;;54.17;;
13605;SDS011;6874;52.084;5.090;2022-12-07T01:05:57;59.90;;;57.93;;
13605;SDS011;6874;52.084;5.090;2022-12-07T01:08:24;52.67;;;50.97;;
13605;SDS011;6874;52.084;5.090;2022-12-07T01:10:57;51.43;;;49.73;;
13605;SDS011;6874;52.084;5.090;2022-12-07T01:13:28;46.93;;;45.43;;
13605;SDS011;6874;52.084;5.090;2022-12-07T01:15:56;51.07;;;49.37;;
13605;SDS011;6874;52.084;5.090;2022-12-07T01:18:24;45.37;;;43.87;;
13605;SDS011;6874;52.084;5.090;2022-12-07T01:21:25;46.17;;;44.67;;
13605;SDS011;6874;52.084;5.090;2022-12-07T01:23:46;57.63;;;55.73;;
13605;SDS011;6874;52.084;5.090;2022-12-07T01:26:12;47.47;;;45.97;;
13605;SDS011;6874;52.084;5.090;2022-12-07T01:28:40;52.77;;;51.07;;
13605;SDS011;6874;52.084;5.090;2022-12-07T01:31:07;48.07;;;46.53;;
13605;SDS011;6874;52.084;5.090;2022-12-07T01:33:37;44.27;;;42.87;;
13605;SDS011;6874;52.084;5.090;2022-12-07T01:36:08;42.40;;;41.00;;
13605;SDS011;6874;52.084;5.090;2022-12-07T01:38:39;42.80;;;41.40;;
13605;SDS011;6874;52.084;5.090;2022-12-07T01:41:05;40.93;;;39.63;;
13605;SDS011;6874;52.084;5.090;2022-12-07T01:43:31;37.00;;;35.80;;
13605;SDS011;6874;52.084;5.090;2022-12-07T01:45:58;39.47;;;38.17;;
13605;SDS011;6874;52.084;5.090;2022-12-07T01:48:29;38.97;;;37.73;;
13605;SDS011;6874;52.084;5.090;2022-12-07T01:51:05;36.90;;;35.70;;
13605;SDS011;6874;52.084;5.090;2022-12-07T01:53:34;41.70;;;40.30;;
13605;SDS011;6874;52.084;5.090;2022-12-07T01:56:03;35.03;;;33.93;;
13605;SDS011;6874;52.084;5.090;2022-12-07T01:58:30;34.60;;;33.50;;
13605;SDS011;6874;52.084;5.090;2022-12-07T02:00:56;30.80;;;29.80;;
13605;SDS011;6874;52.084;5.090;2022-12-07T02:03:24;32.17;;;31.17;;
13605;SDS011;6874;52.084;5.090;2022-12-07T02:05:56;32.00;;;31.00;;
13605;SDS011;6874;52.084;5.090;2022-12-07T02:08:24;30.47;;;29.47;;
13605;SDS011;6874;52.084;5.090;2022-12-07T02:10:50;30.73;;;29.73;;
13605;SDS011;6874;52.084;5.090;2022-12-07T02:13:19;30.37;;;29.37;;
13605;SDS011;6874;52.084;5.090;2022-12-07T02:32:04;64.47;;;62.37;;
13605;SDS011;6874;52.084;5.090;2022-12-07T02:34:50;69.77;;;67.50;;
13605;SDS011;6874;52.084;5.090;2022-12-07T02:37:29;80.30;;;77.70;;
13605;SDS011;6874;52.084;5.090;2022-12-07T02:39:59;77.07;;;74.53;;
13605;SDS011;6874;52.084;5.090;2022-12-07T02:42:40;84.30;;;81.57;;
13605;SDS011;6874;52.084;5.090;2022-12-07T02:45:12;81.83;;;79.17;;
13605;SDS011;6874;52.084;5.090;2022-12-07T02:47:41;81.50;;;78.87;;
13605;SDS011;6874;52.084;5.090;2022-12-07T02:50:09;86.33;;;83.53;;
13605;SDS011;6874;52.084;5.090;2022-12-07T02:52:35;82.23;;;79.57;;
13605;SDS011;6874;52.084;5.090;2022-12-07T02:55:01;81.17;;;78.53;;
13605;SDS011;6874;52.084;5.090;2022-12-07T02:57:42;72.43;;;70.07;;
13605;SDS011;6874;52.084;5.090;2022-12-07T03:00:14;80.77;;;78.13;;
13605;SDS011;6874;52.084;5.090;2022-12-07T03:08:17;83.63;;;80.93;;
13605;SDS011;6874;52.084;5.090;2022-12-07T03:15:55;66.27;;;64.13;;
13605;SDS011;6874;52.084;5.090;2022-12-07T03:19:24;65.53;;;63.43;;
13605;SDS011;6874;52.084;5.090;2022-12-07T03:21:39;65.70;;;63.60;;
13605;SDS011;6874;52.084;5.090;2022-12-07T03:24:09;67.80;;;65.60;;
13605;SDS011;6874;52.084;5.090;2022-12-07T03:26:41;59.77;;;57.83;;
13605;SDS011;6874;52.084;5.090;2022-12-07T03:29:19;49.90;;;48.30;;
13605;SDS011;6874;52.084;5.090;2022-12-07T03:32:05;56.57;;;54.77;;
13605;SDS011;6874;52.084;5.090;2022-12-07T03:34:46;50.80;;;49.20;;
13605;SDS011;6874;52.084;5.090;2022-12-07T03:37:17;51.53;;;49.83;;
13605;SDS011;6874;52.084;5.090;2022-12-07T03:40:01;41.07;;;39.77;;
13605;SDS011;6874;52.084;5.090;2022-12-07T03:42:44;45.53;;;44.03;;
13605;SDS011;6874;52.084;5.090;2022-12-07T03:45:10;40.77;;;39.47;;
13605;SDS011;6874;52.084;5.090;2022-12-07T03:47:47;39.63;;;38.33;;
13605;SDS011;6874;52.084;5.090;2022-12-07T03:50:38;39.13;;;37.87;;
13605;SDS011;6874;52.084;5.090;2022-12-07T03:53:14;34.90;;;33.80;;
13605;SDS011;6874;52.084;5.090;2022-12-07T03:55:48;36.57;;;35.37;;
13605;SDS011;6874;52.084;5.090;2022-12-07T03:58:15;32.43;;;31.43;;
13605;SDS011;6874;52.084;5.090;2022-12-07T04:00:43;30.93;;;29.93;;
13605;SDS011;6874;52.084;5.090;2022-12-07T04:03:10;25.03;;;24.23;;
13605;SDS011;6874;52.084;5.090;2022-12-07T04:05:35;24.63;;;23.83;;
13605;SDS011;6874;52.084;5.090;2022-12-07T04:08:02;24.00;;;23.27;;
13605;SDS011;6874;52.084;5.090;2022-12-07T04:10:28;23.30;;;22.60;;
13605;SDS011;6874;52.084;5.090;2022-12-07T04:12:53;20.87;;;20.23;;
13605;SDS011;6874;52.084;5.090;2022-12-07T04:15:19;18.10;;;17.53;;
13605;SDS011;6874;52.084;5.090;2022-12-07T04:17:44;20.10;;;19.50;;
13605;SDS011;6874;52.084;5.090;2022-12-07T04:20:10;20.23;;;19.63;;
13605;SDS011;6874;52.084;5.090;2022-12-07T04:22:36;18.30;;;17.70;;
13605;SDS011;6874;52.084;5.090;2022-12-07T04:25:02;19.87;;;19.27;;
13605;SDS011;6874;52.084;5.090;2022-12-07T04:27:28;17.27;;;16.77;;
13605;SDS011;6874;52.084;5.090;2022-12-07T04:29:53;17.70;;;17.17;;
13605;SDS011;6874;52.084;5.090;2022-12-07T04:32:20;18.77;;;18.17;;
13605;SDS011;6874;52.084;5.090;2022-12-07T04:34:46;16.67;;;16.17;;
13605;SDS011;6874;52.084;5.090;2022-12-07T04:37:12;15.63;;;15.17;;
13605;SDS011;6874;52.084;5.090;2022-12-07T04:39:37;17.00;;;16.50;;
13605;SDS011;6874;52.084;5.090;2022-12-07T04:42:03;16.67;;;16.17;;
13605;SDS011;6874;52.084;5.090;2022-12-07T04:44:29;15.33;;;14.87;;
13605;SDS011;6874;52.084;5.090;2022-12-07T04:46:55;14.53;;;14.10;;
13605;SDS011;6874;52.084;5.090;2022-12-07T04:49:22;13.83;;;13.43;;
13605;SDS011;6874;52.084;5.090;2022-12-07T04:51:48;15.10;;;14.63;;
13605;SDS011;6874;52.084;5.090;2022-12-07T04:54:14;14.13;;;13.73;;
13605;SDS011;6874;52.084;5.090;2022-12-07T04:56:41;15.73;;;15.23;;
13605;SDS011;6874;52.084;5.090;2022-12-07T04:59:07;15.13;;;14.67;;
13605;SDS011;6874;52.084;5.090;2022-12-07T05:01:34;15.97;;;15.47;;
13605;SDS011;6874;52.084;5.090;2022-12-07T05:04:00;14.97;;;14.53;;
13605;SDS011;6874;52.084;5.090;2022-12-07T05:06:25;15.17;;;14.67;;
13605;SDS011;6874;52.084;5.090;2022-12-07T05:08:51;14.83;;;14.40;;
13605;SDS011;6874;52.084;5.090;2022-12-07T05:11:16;13.63;;;13.23;;
13605;SDS011;6874;52.084;5.090;2022-12-07T05:14:01;12.97;;;12.57;;
13605;SDS011;6874;52.084;5.090;2022-12-07T05:16:28;14.83;;;14.40;;
13605;SDS011;6874;52.084;5.090;2022-12-07T05:18:54;14.13;;;13.73;;
13605;SDS011;6874;52.084;5.090;2022-12-07T05:21:19;12.73;;;12.33;;
13605;SDS011;6874;52.084;5.090;2022-12-07T05:23:45;13.87;;;13.47;;
13605;SDS011;6874;52.084;5.090;2022-12-07T05:26:10;14.40;;;14.00;;
13605;SDS011;6874;52.084;5.090;2022-12-07T05:28:36;13.77;;;13.37;;
13605;SDS011;6874;52.084;5.090;2022-12-07T05:31:02;13.70;;;13.30;;
13605;SDS011;6874;52.084;5.090;2022-12-07T05:33:28;15.40;;;14.93;;
13605;SDS011;6874;52.084;5.090;2022-12-07T05:35:53;15.83;;;15.33;;
13605;SDS011;6874;52.084;5.090;2022-12-07T05:38:19;14.03;;;13.63;;
13605;SDS011;6874;52.084;5.090;2022-12-07T05:40:44;15.63;;;15.13;;
13605;SDS011;6874;52.084;5.090;2022-12-07T05:43:10;14.13;;;13.73;;
13605;SDS011;6874;52.084;5.090;2022-12-07T05:45:35;13.87;;;13.47;;
13605;SDS011;6874;52.084;5.090;2022-12-07T05:48:01;16.10;;;15.60;;
13605;SDS011;6874;52.084;5.090;2022-12-07T05:50:27;16.20;;;15.70;;
13605;SDS011;6874;52.084;5.090;2022-12-07T05:52:53;15.07;;;14.60;;
13605;SDS011;6874;52.084;5.090;2022-12-07T05:55:18;16.53;;;16.03;;
13605;SDS011;6874;52.084;5.090;2022-12-07T05:57:44;15.40;;;14.93;;
13605;SDS011;6874;52.084;5.090;2022-12-07T06:00:29;13.83;;;13.43;;
13605;SDS011;6874;52.084;5.090;2022-12-07T06:02:55;14.87;;;14.40;;
13605;SDS011;6874;52.084;5.090;2022-12-07T06:05:21;15.63;;;15.13;;
13605;SDS011;6874;52.084;5.090;2022-12-07T06:07:46;18.80;;;18.23;;
13605;SDS011;6874;52.084;5.090;2022-12-07T06:10:12;16.17;;;15.67;;
13605;SDS011;6874;52.084;5.090;2022-12-07T06:12:37;19.10;;;18.50;;
13605;SDS011;6874;52.084;5.090;2022-12-07T06:15:04;15.90;;;15.40;;
13605;SDS011;6874;52.084;5.090;2022-12-07T06:17:30;17.63;;;17.10;;
13605;SDS011;6874;52.084;5.090;2022-12-07T06:19:56;14.57;;;14.13;;
13605;SDS011;6874;52.084;5.090;2022-12-07T06:22:22;15.90;;;15.40;;
13605;SDS011;6874;52.084;5.090;2022-12-07T06:24:47;14.83;;;14.40;;
13605;SDS011;6874;52.084;5.090;2022-12-07T06:27:13;15.57;;;15.07;;
13605;SDS011;6874;52.084;5.090;2022-12-07T06:29:39;16.77;;;16.27;;
13605;SDS011;6874;52.084;5.090;2022-12-07T06:32:04;16.80;;;16.30;;
13605;SDS011;6874;52.084;5.090;2022-12-07T06:34:30;19.00;;;18.40;;
13605;SDS011;6874;52.084;5.090;2022-12-07T06:36:56;14.37;;;13.93;;
13605;SDS011;6874;52.084;5.090;2022-12-07T06:39:22;15.53;;;15.03;;
13605;SDS011;6874;52.084;5.090;2022-12-07T06:41:50;17.23;;;16.73;;
13605;SDS011;6874;52.084;5.090;2022-12-07T06:44:19;15.70;;;15.20;;
13605;SDS011;6874;52.084;5.090;2022-12-07T06:46:46;20.13;;;19.53;;
13605;SDS011;6874;52.084;5.090;2022-12-07T06:49:12;20.80;;;20.20;;
13605;SDS011;6874;52.084;5.090;2022-12-07T06:51:38;18.13;;;17.57;;
13605;SDS011;6874;52.084;5.090;2022-12-07T06:54:06;20.83;;;20.23;;
13605;SDS011;6874;52.084;5.090;2022-12-07T06:56:36;17.53;;;17.03;;
13605;SDS011;6874;52.084;5.090;2022-12-07T06:59:02;19.63;;;19.03;;
13605;SDS011;6874;52.084;5.090;2022-12-07T07:01:28;19.97;;;19.37;;
13605;SDS011;6874;52.084;5.090;2022-12-07T07:03:54;19.70;;;19.10;;
13605;SDS011;6874;52.084;5.090;2022-12-07T07:06:20;19.30;;;18.70;;
13605;SDS011;6874;52.084;5.090;2022-12-07T07:08:45;17.43;;;16.93;;
13605;SDS011;6874;52.084;5.090;2022-12-07T07:11:11;20.23;;;19.63;;
13605;SDS011;6874;52.084;5.090;2022-12-07T07:13:37;19.60;;;19.00;;
13605;SDS011;6874;52.084;5.090;2022-12-07T07:16:03;17.70;;;17.20;;
13605;SDS011;6874;52.084;5.090;2022-12-07T07:18:28;15.67;;;15.17;;
13605;SDS011;6874;52.084;5.090;2022-12-07T07:20:54;19.80;;;19.20;;
13605;SDS011;6874;52.084;5.090;2022-12-07T07:23:20;17.70;;;17.17;;
13605;SDS011;6874;52.084;5.090;2022-12-07T07:25:46;18.73;;;18.13;;
13605;SDS011;6874;52.084;5.090;2022-12-07T07:28:13;16.97;;;16.47;;
13605;SDS011;6874;52.084;5.090;2022-12-07T07:30:39;15.10;;;14.63;;
13605;SDS011;6874;52.084;5.090;2022-12-07T07:33:05;16.90;;;16.40;;
13605;SDS011;6874;52.084;5.090;2022-12-07T07:35:31;16.53;;;16.03;;
13605;SDS011;6874;52.084;5.090;2022-12-07T07:37:58;14.47;;;14.07;;
13605;SDS011;6874;52.084;5.090;2022-12-07T07:40:24;14.23;;;13.83;;
13605;SDS011;6874;52.084;5.090;2022-12-07T07:42:51;12.10;;;11.73;;
13605;SDS011;6874;52.084;5.090;2022-12-07T07:45:18;13.43;;;13.03;;
13605;SDS011;6874;52.084;5.090;2022-12-07T07:47:45;13.87;;;13.47;;
13605;SDS011;6874;52.084;5.090;2022-12-07T07:50:10;14.10;;;13.70;;
13605;SDS011;6874;52.084;5.090;2022-12-07T07:52:36;13.37;;;12.97;;
13605;SDS011;6874;52.084;5.090;2022-12-07T07:55:02;11.57;;;11.23;;
13605;SDS011;6874;52.084;5.090;2022-12-07T07:57:28;12.67;;;12.27;;
13605;SDS011;6874;52.084;5.090;2022-12-07T07:59:53;12.20;;;11.83;;
13605;SDS011;6874;52.084;5.090;2022-12-07T08:02:21;12.87;;;12.47;;
13605;SDS011;6874;52.084;5.090;2022-12-07T08:04:47;13.40;;;13.00;;
13605;SDS011;6874;52.084;5.090;2022-12-07T08:07:13;13.30;;;12.90;;
13605;SDS011;6874;52.084;5.090;2022-12-07T08:09:39;12.93;;;12.53;;
13605;SDS011;6874;52.084;5.090;2022-12-07T08:12:05;12.10;;;11.73;;
13605;SDS011;6874;52.084;5.090;2022-12-07T08:14:30;12.30;;;11.93;;
13605;SDS011;6874;52.084;5.090;2022-12-07T08:16:56;12.77;;;12.37;;
13605;SDS011;6874;52.084;5.090;2022-12-07T08:19:23;14.10;;;13.70;;
13605;SDS011;6874;52.084;5.090;2022-12-07T08:21:48;12.40;;;12.00;;
13605;SDS011;6874;52.084;5.090;2022-12-07T08:24:14;11.67;;;11.37;;
13605;SDS011;6874;52.084;5.090;2022-12-07T08:26:40;12.47;;;12.07;;
13605;SDS011;6874;52.084;5.090;2022-12-07T08:29:06;12.27;;;11.87;;
13605;SDS011;6874;52.084;5.090;2022-12-07T08:31:32;12.57;;;12.17;;
13605;SDS011;6874;52.084;5.090;2022-12-07T08:33:57;13.23;;;12.83;;
13605;SDS011;6874;52.084;5.090;2022-12-07T08:36:23;13.13;;;12.73;;
13605;SDS011;6874;52.084;5.090;2022-12-07T08:38:49;12.87;;;12.47;;
13605;SDS011;6874;52.084;5.090;2022-12-07T08:41:15;14.17;;;13.77;;
13605;SDS011;6874;52.084;5.090;2022-12-07T08:43:41;15.73;;;15.23;;
13605;SDS011;6874;52.084;5.090;2022-12-07T08:46:08;13.70;;;13.30;;
13605;SDS011;6874;52.084;5.090;2022-12-07T08:48:35;12.87;;;12.47;;
13605;SDS011;6874;52.084;5.090;2022-12-07T08:51:08;13.33;;;12.93;;
13605;SDS011;6874;52.084;5.090;2022-12-07T08:53:34;12.97;;;12.57;;
13605;SDS011;6874;52.084;5.090;2022-12-07T08:56:01;13.70;;;13.30;;
13605;SDS011;6874;52.084;5.090;2022-12-07T08:58:27;14.87;;;14.43;;
13605;SDS011;6874;52.084;5.090;2022-12-07T09:00:52;19.00;;;18.40;;
13605;SDS011;6874;52.084;5.090;2022-12-07T09:03:18;21.17;;;20.53;;
13605;SDS011;6874;52.084;5.090;2022-12-07T09:05:44;23.93;;;23.17;;
13605;SDS011;6874;52.084;5.090;2022-12-07T09:08:09;23.13;;;22.43;;
13605;SDS011;6874;52.084;5.090;2022-12-07T09:10:35;28.77;;;27.87;;
13605;SDS011;6874;52.084;5.090;2022-12-07T09:13:01;30.37;;;29.40;;
13605;SDS011;6874;52.084;5.090;2022-12-07T09:15:27;28.80;;;27.87;;
13605;SDS011;6874;52.084;5.090;2022-12-07T09:17:53;26.53;;;25.70;;
13605;SDS011;6874;52.084;5.090;2022-12-07T09:20:19;32.90;;;31.83;;
13605;SDS011;6874;52.084;5.090;2022-12-07T09:22:45;29.30;;;28.37;;
13605;SDS011;6874;52.084;5.090;2022-12-07T09:25:10;32.23;;;31.20;;
13605;SDS011;6874;52.084;5.090;2022-12-07T09:27:36;36.30;;;35.13;;
13605;SDS011;6874;52.084;5.090;2022-12-07T09:30:02;38.20;;;36.97;;
13605;SDS011;6874;52.084;5.090;2022-12-07T09:32:29;41.87;;;40.53;;
13605;SDS011;6874;52.084;5.090;2022-12-07T09:34:54;39.73;;;38.47;;
13605;SDS011;6874;52.084;5.090;2022-12-07T09:37:20;43.00;;;41.63;;
13605;SDS011;6874;52.084;5.090;2022-12-07T09:39:46;38.37;;;37.10;;
13605;SDS011;6874;52.084;5.090;2022-12-07T09:42:18;45.27;;;43.80;;
13605;SDS011;6874;52.084;5.090;2022-12-07T09:44:58;44.97;;;43.53;;
13605;SDS011;6874;52.084;5.090;2022-12-07T09:47:25;48.30;;;46.73;;
13605;SDS011;6874;52.084;5.090;2022-12-07T09:49:53;52.37;;;50.67;;
13605;SDS011;6874;52.084;5.090;2022-12-07T09:52:26;51.57;;;49.90;;
13605;SDS011;6874;52.084;5.090;2022-12-07T09:54:53;54.20;;;52.47;;
13605;SDS011;6874;52.084;5.090;2022-12-07T09:57:29;54.23;;;52.47;;
13605;SDS011;6874;52.084;5.090;2022-12-07T09:59:59;57.87;;;56.00;;
13605;SDS011;6874;52.084;5.090;2022-12-07T10:02:33;58.80;;;56.90;;
13605;SDS011;6874;52.084;5.090;2022-12-07T10:05:21;58.97;;;57.07;;
13605;SDS011;6874;52.084;5.090;2022-12-07T10:07:53;58.30;;;56.40;;
13605;SDS011;6874;52.084;5.090;2022-12-07T10:10:27;57.67;;;55.80;;
13605;SDS011;6874;52.084;5.090;2022-12-07T10:12:59;54.93;;;53.13;;
13605;SDS011;6874;52.084;5.090;2022-12-07T10:15:47;61.67;;;59.67;;
13605;SDS011;6874;52.084;5.090;2022-12-07T10:26:35;58.17;;;56.23;;
13605;SDS011;6874;52.084;5.090;2022-12-07T10:31:45;53.27;;;51.53;;
13605;SDS011;6874;52.084;5.090;2022-12-07T10:34:25;55.50;;;53.67;;
13605;SDS011;6874;52.084;5.090;2022-12-07T10:39:41;49.13;;;47.50;;
13605;SDS011;6874;52.084;5.090;2022-12-07T10:42:09;52.47;;;50.73;;
13605;SDS011;6874;52.084;5.090;2022-12-07T10:44:44;50.63;;;48.97;;
13605;SDS011;6874;52.084;5.090;2022-12-07T10:53:06;39.23;;;37.93;;
13605;SDS011;6874;52.084;5.090;2022-12-07T10:59:02;38.90;;;37.63;;
13605;SDS011;6874;52.084;5.090;2022-12-07T11:04:24;37.50;;;36.30;;
13605;SDS011;6874;52.084;5.090;2022-12-07T11:12:15;46.03;;;44.53;;
13605;SDS011;6874;52.084;5.090;2022-12-07T11:15:04;40.73;;;39.43;;
13605;SDS011;6874;52.084;5.090;2022-12-07T11:17:45;38.43;;;37.20;;
13605;SDS011;6874;52.084;5.090;2022-12-07T11:20:35;40.57;;;39.23;;
13605;SDS011;6874;52.084;5.090;2022-12-07T11:23:15;44.13;;;42.70;;
13605;SDS011;6874;52.084;5.090;2022-12-07T11:25:59;35.90;;;34.73;;
13605;SDS011;6874;52.084;5.090;2022-12-07T11:34:07;39.50;;;38.23;;
13605;SDS011;6874;52.084;5.090;2022-12-07T11:36:53;38.60;;;37.30;;
13605;SDS011;6874;52.084;5.090;2022-12-07T11:39:32;46.47;;;44.93;;
13605;SDS011;6874;52.084;5.090;2022-12-07T11:42:01;46.37;;;44.87;;
13605;SDS011;6874;52.084;5.090;2022-12-07T11:44:37;46.03;;;44.53;;
13605;SDS011;6874;52.084;5.090;2022-12-07T11:47:09;47.47;;;45.90;;
13605;SDS011;6874;52.084;5.090;2022-12-07T11:52:27;45.47;;;43.97;;
13605;SDS011;6874;52.084;5.090;2022-12-07T11:55:16;39.27;;;37.97;;
13605;SDS011;6874;52.084;5.090;2022-12-07T11:57:54;47.50;;;45.93;;
13605;SDS011;6874;52.084;5.090;2022-12-07T12:00:28;47.37;;;45.77;;
13605;SDS011;6874;52.084;5.090;2022-12-07T12:02:57;47.27;;;45.70;;
13605;SDS011;6874;52.084;5.090;2022-12-07T12:05:28;47.73;;;46.17;;
13605;SDS011;6874;52.084;5.090;2022-12-07T12:08:55;54.03;;;52.27;;
13605;SDS011;6874;52.084;5.090;2022-12-07T12:10:55;41.87;;;40.47;;
13605;SDS011;6874;52.084;5.090;2022-12-07T12:22:19;45.87;;;44.37;;
13605;SDS011;6874;52.084;5.090;2022-12-07T12:24:48;54.47;;;52.67;;
13605;SDS011;6874;52.084;5.090;2022-12-07T12:27:25;55.07;;;53.27;;
13605;SDS011;6874;52.084;5.090;2022-12-07T12:29:59;56.20;;;54.37;;
13605;SDS011;6874;52.084;5.090;2022-12-07T12:32:42;58.60;;;56.67;;
13605;SDS011;6874;52.084;5.090;2022-12-07T12:35:28;49.50;;;47.87;;
13605;SDS011;6874;52.084;5.090;2022-12-07T12:45:04;39.27;;;37.97;;
13605;SDS011;6874;52.084;5.090;2022-12-07T12:46:59;30.43;;;29.43;;
13605;SDS011;6874;52.084;5.090;2022-12-07T12:49:33;40.43;;;39.10;;
13605;SDS011;6874;52.084;5.090;2022-12-07T12:55:00;32.33;;;31.30;;
13605;SDS011;6874;52.084;5.090;2022-12-07T12:57:33;39.40;;;38.10;;
13605;SDS011;6874;52.084;5.090;2022-12-07T13:00:00;47.67;;;46.10;;
13605;SDS011;6874;52.084;5.090;2022-12-07T13:02:54;38.00;;;36.77;;
13605;SDS011;6874;52.084;5.090;2022-12-07T13:05:22;43.00;;;41.60;;
13605;SDS011;6874;52.084;5.090;2022-12-07T13:08:02;45.20;;;43.70;;
13605;SDS011;6874;52.084;5.090;2022-12-07T13:10:39;40.33;;;39.03;;
13605;SDS011;6874;52.084;5.090;2022-12-07T13:15:50;45.70;;;44.20;;
13605;SDS011;6874;52.084;5.090;2022-12-07T13:18:34;50.30;;;48.67;;
13605;SDS011;6874;52.084;5.090;2022-12-07T13:23:35;49.47;;;47.83;;
13605;SDS011;6874;52.084;5.090;2022-12-07T13:26:14;51.20;;;49.50;;
13605;SDS011;6874;52.084;5.090;2022-12-07T13:28:41;57.47;;;55.57;;
13605;SDS011;6874;52.084;5.090;2022-12-07T13:34:03;44.07;;;42.57;;
13605;SDS011;6874;52.084;5.090;2022-12-07T13:36:37;46.23;;;44.70;;
13605;SDS011;6874;52.084;5.090;2022-12-07T13:39:19;42.63;;;41.23;;
13605;SDS011;6874;52.084;5.090;2022-12-07T13:41:55;36.03;;;34.83;;
13605;SDS011;6874;52.084;5.090;2022-12-07T13:44:22;37.37;;;36.13;;
13605;SDS011;6874;52.084;5.090;2022-12-07T13:46:54;38.67;;;37.37;;
13605;SDS011;6874;52.084;5.090;2022-12-07T13:49:46;26.70;;;25.83;;
13605;SDS011;6874;52.084;5.090;2022-12-07T13:54:45;32.30;;;31.27;;
13605;SDS011;6874;52.084;5.090;2022-12-07T13:57:26;30.17;;;29.17;;
13605;SDS011;6874;52.084;5.090;2022-12-07T13:59:54;38.87;;;37.57;;
13605;SDS011;6874;52.084;5.090;2022-12-07T14:02:21;44.07;;;42.60;;
13605;SDS011;6874;52.084;5.090;2022-12-07T14:04:48;49.33;;;47.73;;
13605;SDS011;6874;52.084;5.090;2022-12-07T14:07:23;55.53;;;53.70;;
13605;SDS011;6874;52.084;5.090;2022-12-07T14:10:23;50.53;;;48.83;;
13605;SDS011;6874;52.084;5.090;2022-12-07T14:15:58;35.87;;;34.67;;
13605;SDS011;6874;52.084;5.090;2022-12-07T14:18:29;47.20;;;45.63;;
13605;SDS011;6874;52.084;5.090;2022-12-07T14:23:37;44.60;;;43.10;;
13605;SDS011;6874;52.084;5.090;2022-12-07T14:26:06;57.10;;;55.20;;
13605;SDS011;6874;52.084;5.090;2022-12-07T14:28:36;55.23;;;53.40;;
13605;SDS011;6874;52.084;5.090;2022-12-07T14:31:03;60.83;;;58.83;;
13605;SDS011;6874;52.084;5.090;2022-12-07T14:33:34;58.77;;;56.83;;
13605;SDS011;6874;52.084;5.090;2022-12-07T14:36:00;59.53;;;57.53;;
13605;SDS011;6874;52.084;5.090;2022-12-07T14:38:26;68.07;;;65.77;;
13605;SDS011;6874;52.084;5.090;2022-12-07T14:40:52;63.23;;;61.13;;
13605;SDS011;6874;52.084;5.090;2022-12-07T14:43:18;63.97;;;61.87;;
13605;SDS011;6874;52.084;5.090;2022-12-07T14:45:45;65.70;;;63.50;;
13605;SDS011;6874;52.084;5.090;2022-12-07T14:48:11;68.07;;;65.80;;
13605;SDS011;6874;52.084;5.090;2022-12-07T14:50:43;67.13;;;64.87;;
13605;SDS011;6874;52.084;5.090;2022-12-07T14:53:15;66.03;;;63.83;;
13605;SDS011;6874;52.084;5.090;2022-12-07T14:55:43;64.50;;;62.37;;
13605;SDS011;6874;52.084;5.090;2022-12-07T14:58:12;68.73;;;66.47;;
13605;SDS011;6874;52.084;5.090;2022-12-07T15:00:39;68.10;;;65.80;;
13605;SDS011;6874;52.084;5.090;2022-12-07T15:03:05;72.60;;;70.17;;
13605;SDS011;6874;52.084;5.090;2022-12-07T15:05:30;72.53;;;70.13;;
13605;SDS011;6874;52.084;5.090;2022-12-07T15:07:57;78.93;;;76.30;;
13605;SDS011;6874;52.084;5.090;2022-12-07T15:10:24;74.00;;;71.53;;
13605;SDS011;6874;52.084;5.090;2022-12-07T15:12:56;71.57;;;69.20;;
13605;SDS011;6874;52.084;5.090;2022-12-07T15:18:52;50.43;;;48.73;;
13605;SDS011;6874;52.084;5.090;2022-12-07T15:21:17;66.10;;;63.90;;
13605;SDS011;6874;52.084;5.090;2022-12-07T15:23:43;70.20;;;67.90;;
13605;SDS011;6874;52.084;5.090;2022-12-07T15:26:11;76.93;;;74.37;;
13605;SDS011;6874;52.084;5.090;2022-12-07T15:28:37;75.60;;;73.07;;
13605;SDS011;6874;52.084;5.090;2022-12-07T15:31:03;74.70;;;72.20;;
13605;SDS011;6874;52.084;5.090;2022-12-07T15:33:28;79.03;;;76.33;;
13605;SDS011;6874;52.084;5.090;2022-12-07T15:35:54;73.70;;;71.27;;
13605;SDS011;6874;52.084;5.090;2022-12-07T15:38:19;236.50;;;228.48;;
13605;SDS011;6874;52.084;5.090;2022-12-07T15:40:48;153.03;;;147.97;;
13605;SDS011;6874;52.084;5.090;2022-12-07T15:43:14;120.30;;;116.30;;
13605;SDS011;6874;52.084;5.090;2022-12-07T15:45:58;107.00;;;103.50;;
13605;SDS011;6874;52.084;5.090;2022-12-07T15:48:24;99.27;;;96.00;;
13605;SDS011;6874;52.084;5.090;2022-12-07T15:50:50;109.27;;;105.70;;
13605;SDS011;6874;52.084;5.090;2022-12-07T15:53:15;103.33;;;99.90;;
13605;SDS011;6874;52.084;5.090;2022-12-07T15:55:41;94.53;;;91.40;;
13605;SDS011;6874;52.084;5.090;2022-12-07T15:58:07;90.80;;;87.80;;
13605;SDS011;6874;52.084;5.090;2022-12-07T16:00:33;94.03;;;90.93;;
13605;SDS011;6874;52.084;5.090;2022-12-07T16:02:58;97.93;;;94.73;;
13605;SDS011;6874;52.084;5.090;2022-12-07T16:05:24;91.33;;;88.33;;
13605;SDS011;6874;52.084;5.090;2022-12-07T16:07:49;91.07;;;88.07;;
13605;SDS011;6874;52.084;5.090;2022-12-07T16:10:15;86.13;;;83.30;;
13605;SDS011;6874;52.084;5.090;2022-12-07T16:12:41;89.63;;;86.67;;
13605;SDS011;6874;52.084;5.090;2022-12-07T16:15:06;92.70;;;89.63;;
13605;SDS011;6874;52.084;5.090;2022-12-07T16:17:32;87.93;;;85.03;;
13605;SDS011;6874;52.084;5.090;2022-12-07T16:19:58;86.73;;;83.90;;
13605;SDS011;6874;52.084;5.090;2022-12-07T16:22:23;90.87;;;87.83;;
13605;SDS011;6874;52.084;5.090;2022-12-07T16:24:49;93.30;;;90.20;;
13605;SDS011;6874;52.084;5.090;2022-12-07T16:27:14;87.80;;;84.90;;
13605;SDS011;6874;52.084;5.090;2022-12-07T16:29:40;91.70;;;88.67;;
13605;SDS011;6874;52.084;5.090;2022-12-07T16:32:06;93.50;;;90.40;;